sensor_id;sensor_type;location;lat;lon;timestamp;pressure;altitude;pressure_sealevel;temperature;humidity
38912;BME280;28444;48.056;14.408;2022-07-22T00:01:44;98011.84;;;21.02;90.98
38912;BME280;28444;48.056;14.408;2022-07-22T00:04:11;98009.69;;;21.01;92.00
38912;BME280;28444;48.056;14.408;2022-07-22T00:06:38;98009.50;;;20.97;91.78
38912;BME280;28444;48.056;14.408;2022-07-22T00:09:04;98008.34;;;20.72;92.22
38912;BME280;28444;48.056;14.408;2022-07-22T00:11:31;98011.91;;;20.59;92.67
38912;BME280;28444;48.056;14.408;2022-07-22T00:14:00;98015.72;;;20.52;93.53
38912;BME280;28444;48.056;14.408;2022-07-22T00:16:27;98009.22;;;20.47;94.15
38912;BME280;28444;48.056;14.408;2022-07-22T00:18:53;98013.44;;;20.48;94.04
38912;BME280;28444;48.056;14.408;2022-07-22T00:21:21;98021.16;;;20.50;94.27
38912;BME280;28444;48.056;14.408;2022-07-22T00:23:48;98021.88;;;20.50;94.21
38912;BME280;28444;48.056;14.408;2022-07-22T00:26:14;98010.66;;;20.48;93.66
38912;BME280;28444;48.056;14.408;2022-07-22T00:28:41;98019.72;;;20.49;93.48
38912;BME280;28444;48.056;14.408;2022-07-22T00:31:08;98013.56;;;20.50;93.33
38912;BME280;28444;48.056;14.408;2022-07-22T00:33:35;98019.00;;;20.48;93.22
38912;BME280;28444;48.056;14.408;2022-07-22T00:36:01;98013.03;;;20.54;92.75
38912;BME280;28444;48.056;14.408;2022-07-22T00:38:28;98015.72;;;20.52;92.69
38912;BME280;28444;48.056;14.408;2022-07-22T00:40:55;98010.97;;;20.54;93.09
38912;BME280;28444;48.056;14.408;2022-07-22T00:43:22;98011.09;;;20.42;93.73
38912;BME280;28444;48.056;14.408;2022-07-22T00:45:49;98003.97;;;20.39;93.69
38912;BME280;28444;48.056;14.408;2022-07-22T00:48:16;98002.75;;;20.42;93.95
38912;BME280;28444;48.056;14.408;2022-07-22T00:50:45;98005.81;;;20.49;93.81
38912;BME280;28444;48.056;14.408;2022-07-22T00:53:12;98001.59;;;20.48;93.12
38912;BME280;28444;48.056;14.408;2022-07-22T00:55:38;97998.03;;;20.45;93.25
38912;BME280;28444;48.056;14.408;2022-07-22T00:58:06;97997.31;;;20.44;93.65
38912;BME280;28444;48.056;14.408;2022-07-22T01:00:32;97996.78;;;20.48;93.36
38912;BME280;28444;48.056;14.408;2022-07-22T01:02:59;97994.72;;;20.49;92.96
38912;BME280;28444;48.056;14.408;2022-07-22T01:05:26;97984.31;;;20.49;93.08
38912;BME280;28444;48.056;14.408;2022-07-22T01:07:52;97993.25;;;20.48;93.72
38912;BME280;28444;48.056;14.408;2022-07-22T01:10:19;97989.69;;;20.45;93.22
38912;BME280;28444;48.056;14.408;2022-07-22T01:12:46;97987.63;;;20.46;92.86
38912;BME280;28444;48.056;14.408;2022-07-22T01:15:13;97982.69;;;20.44;93.20
38912;BME280;28444;48.056;14.408;2022-07-22T01:17:39;97977.22;;;20.46;92.79
38912;BME280;28444;48.056;14.408;2022-07-22T01:20:07;97981.88;;;20.41;92.93
38912;BME280;28444;48.056;14.408;2022-07-22T01:22:34;97988.47;;;20.34;93.16
38912;BME280;28444;48.056;14.408;2022-07-22T01:25:01;97987.03;;;20.33;93.89
38912;BME280;28444;48.056;14.408;2022-07-22T01:27:28;97991.84;;;20.33;93.58
38912;BME280;28444;48.056;14.408;2022-07-22T01:29:56;97988.28;;;20.30;93.12
38912;BME280;28444;48.056;14.408;2022-07-22T01:32:24;97992.06;;;20.37;93.13
38912;BME280;28444;48.056;14.408;2022-07-22T01:34:50;97981.88;;;20.41;92.52
38912;BME280;28444;48.056;14.408;2022-07-22T01:37:17;97983.84;;;20.39;92.66
38912;BME280;28444;48.056;14.408;2022-07-22T01:39:44;97976.22;;;20.39;92.74
38912;BME280;28444;48.056;14.408;2022-07-22T01:42:10;97975.84;;;20.31;93.15
38912;BME280;28444;48.056;14.408;2022-07-22T01:44:37;97978.41;;;20.27;93.17
38912;BME280;28444;48.056;14.408;2022-07-22T01:47:04;97987.34;;;20.26;93.15
38912;BME280;28444;48.056;14.408;2022-07-22T01:49:31;97967.31;;;20.27;93.08
38912;BME280;28444;48.056;14.408;2022-07-22T01:51:58;97979.84;;;20.28;93.20
38912;BME280;28444;48.056;14.408;2022-07-22T01:54:24;97963.63;;;20.23;93.48
38912;BME280;28444;48.056;14.408;2022-07-22T01:56:51;97969.19;;;20.23;93.30
38912;BME280;28444;48.056;14.408;2022-07-22T01:59:18;97969.25;;;20.25;93.44
38912;BME280;28444;48.056;14.408;2022-07-22T02:01:44;97966.81;;;20.17;93.57
38912;BME280;28444;48.056;14.408;2022-07-22T02:04:11;97957.44;;;20.24;93.76
38912;BME280;28444;48.056;14.408;2022-07-22T02:06:38;97964.22;;;20.21;94.39
38912;BME280;28444;48.056;14.408;2022-07-22T02:09:05;97960.03;;;20.20;94.87
38912;BME280;28444;48.056;14.408;2022-07-22T02:11:32;97965.47;;;20.18;94.98
38912;BME280;28444;48.056;14.408;2022-07-22T02:13:59;97956.34;;;20.15;94.73
38912;BME280;28444;48.056;14.408;2022-07-22T02:16:25;97957.13;;;20.18;93.45
38912;BME280;28444;48.056;14.408;2022-07-22T02:18:52;97957.97;;;20.20;92.51
38912;BME280;28444;48.056;14.408;2022-07-22T02:21:20;97962.28;;;20.24;92.07
38912;BME280;28444;48.056;14.408;2022-07-22T02:23:47;97965.47;;;20.18;91.89
38912;BME280;28444;48.056;14.408;2022-07-22T02:26:14;97962.09;;;20.19;91.85
38912;BME280;28444;48.056;14.408;2022-07-22T02:28:40;97956.22;;;20.13;91.85
38912;BME280;28444;48.056;14.408;2022-07-22T02:31:07;97969.28;;;20.11;92.14
38912;BME280;28444;48.056;14.408;2022-07-22T02:33:34;97960.34;;;19.99;92.74
38912;BME280;28444;48.056;14.408;2022-07-22T02:36:01;97963.13;;;19.99;93.08
38912;BME280;28444;48.056;14.408;2022-07-22T02:38:29;97959.66;;;19.98;92.86
38912;BME280;28444;48.056;14.408;2022-07-22T02:40:56;97960.34;;;19.99;92.56
38912;BME280;28444;48.056;14.408;2022-07-22T02:43:23;97961.91;;;19.88;93.27
38912;BME280;28444;48.056;14.408;2022-07-22T02:45:50;97954.94;;;19.87;92.93
38912;BME280;28444;48.056;14.408;2022-07-22T02:48:17;97955.34;;;19.81;92.98
38912;BME280;28444;48.056;14.408;2022-07-22T02:50:47;97961.50;;;19.80;92.71
38912;BME280;28444;48.056;14.408;2022-07-22T02:53:14;97966.53;;;19.83;92.80
38912;BME280;28444;48.056;14.408;2022-07-22T02:55:41;97959.53;;;19.82;92.21
38912;BME280;28444;48.056;14.408;2022-07-22T02:58:08;97955.03;;;19.75;92.86
38912;BME280;28444;48.056;14.408;2022-07-22T03:00:36;97954.31;;;19.75;92.36
38912;BME280;28444;48.056;14.408;2022-07-22T03:03:04;97952.34;;;19.77;91.87
38912;BME280;28444;48.056;14.408;2022-07-22T03:05:31;97948.25;;;19.78;92.04
38912;BME280;28444;48.056;14.408;2022-07-22T03:07:58;97958.72;;;19.80;92.01
38912;BME280;28444;48.056;14.408;2022-07-22T03:10:24;97960.06;;;19.79;92.08
38912;BME280;28444;48.056;14.408;2022-07-22T03:12:51;97955.97;;;19.80;91.78
38912;BME280;28444;48.056;14.408;2022-07-22T03:15:18;97955.13;;;19.77;91.95
38912;BME280;28444;48.056;14.408;2022-07-22T03:17:45;97953.78;;;19.78;91.70
38912;BME280;28444;48.056;14.408;2022-07-22T03:20:12;97955.66;;;19.74;91.21
38912;BME280;28444;48.056;14.408;2022-07-22T03:22:38;97954.63;;;19.67;91.49
38912;BME280;28444;48.056;14.408;2022-07-22T03:25:05;97957.31;;;19.65;91.51
38912;BME280;28444;48.056;14.408;2022-07-22T03:27:32;97955.84;;;19.64;91.51
38912;BME280;28444;48.056;14.408;2022-07-22T03:29:59;97954.06;;;19.57;92.17
38912;BME280;28444;48.056;14.408;2022-07-22T03:32:26;97956.75;;;19.55;92.03
38912;BME280;28444;48.056;14.408;2022-07-22T03:34:53;97954.47;;;19.51;91.98
38912;BME280;28444;48.056;14.408;2022-07-22T03:37:28;97954.19;;;19.59;91.76
38912;BME280;28444;48.056;14.408;2022-07-22T03:39:55;97954.41;;;19.63;91.74
38912;BME280;28444;48.056;14.408;2022-07-22T03:42:22;97960.34;;;19.57;91.47
38912;BME280;28444;48.056;14.408;2022-07-22T03:44:48;97961.06;;;19.58;91.49
38912;BME280;28444;48.056;14.408;2022-07-22T03:47:20;97968.28;;;19.63;91.18
38912;BME280;28444;48.056;14.408;2022-07-22T03:49:47;97968.88;;;19.61;91.34
38912;BME280;28444;48.056;14.408;2022-07-22T03:52:14;97966.50;;;19.56;91.80
38912;BME280;28444;48.056;14.408;2022-07-22T03:54:41;97969.06;;;19.52;92.46
38912;BME280;28444;48.056;14.408;2022-07-22T03:57:09;97967.13;;;19.54;92.81
38912;BME280;28444;48.056;14.408;2022-07-22T03:59:36;97962.91;;;19.53;92.27
38912;BME280;28444;48.056;14.408;2022-07-22T04:02:03;97966.81;;;19.62;91.92
38912;BME280;28444;48.056;14.408;2022-07-22T04:04:30;97965.50;;;19.63;91.98
38912;BME280;28444;48.056;14.408;2022-07-22T04:06:57;97968.59;;;19.69;91.67
38912;BME280;28444;48.056;14.408;2022-07-22T04:09:23;97967.88;;;19.68;92.22
38912;BME280;28444;48.056;14.408;2022-07-22T04:11:50;97964.09;;;19.76;91.88
38912;BME280;28444;48.056;14.408;2022-07-22T04:14:17;97956.56;;;19.78;92.17
38912;BME280;28444;48.056;14.408;2022-07-22T04:16:45;97961.00;;;19.69;92.12
38912;BME280;28444;48.056;14.408;2022-07-22T04:19:12;97968.56;;;19.55;93.34
38912;BME280;28444;48.056;14.408;2022-07-22T04:21:39;97966.50;;;19.56;93.44
38912;BME280;28444;48.056;14.408;2022-07-22T04:24:06;97976.59;;;19.63;93.39
38912;BME280;28444;48.056;14.408;2022-07-22T04:26:33;97969.00;;;19.63;93.85
38912;BME280;28444;48.056;14.408;2022-07-22T04:29:00;97970.16;;;19.72;94.03
38912;BME280;28444;48.056;14.408;2022-07-22T04:31:27;97964.28;;;19.80;92.95
38912;BME280;28444;48.056;14.408;2022-07-22T04:33:54;97967.78;;;19.80;93.42
38912;BME280;28444;48.056;14.408;2022-07-22T04:36:21;97963.56;;;19.79;93.41
38912;BME280;28444;48.056;14.408;2022-07-22T04:38:48;97967.66;;;19.78;93.53
38912;BME280;28444;48.056;14.408;2022-07-22T04:41:16;97970.03;;;19.84;92.87
38912;BME280;28444;48.056;14.408;2022-07-22T04:43:46;97968.59;;;19.83;92.67
38912;BME280;28444;48.056;14.408;2022-07-22T04:46:13;97967.16;;;19.82;92.57
38912;BME280;28444;48.056;14.408;2022-07-22T04:48:39;97972.50;;;19.78;93.13
38912;BME280;28444;48.056;14.408;2022-07-22T04:51:06;97976.94;;;19.83;92.71
38912;BME280;28444;48.056;14.408;2022-07-22T04:53:33;97967.16;;;19.82;93.19
38912;BME280;28444;48.056;14.408;2022-07-22T04:56:10;97967.47;;;19.88;92.79
38912;BME280;28444;48.056;14.408;2022-07-22T04:58:38;97974.31;;;20.01;92.44
38912;BME280;28444;48.056;14.408;2022-07-22T05:01:04;97970.81;;;20.14;92.23
38912;BME280;28444;48.056;14.408;2022-07-22T05:03:32;97964.75;;;20.17;91.95
38912;BME280;28444;48.056;14.408;2022-07-22T05:05:59;97975.72;;;20.29;91.58
38912;BME280;28444;48.056;14.408;2022-07-22T05:08:25;97974.28;;;20.28;91.12
38912;BME280;28444;48.056;14.408;2022-07-22T05:10:52;97980.66;;;20.31;91.74
38912;BME280;28444;48.056;14.408;2022-07-22T05:13:19;97979.00;;;20.39;91.40
38912;BME280;28444;48.056;14.408;2022-07-22T05:15:45;97977.03;;;20.42;91.47
38912;BME280;28444;48.056;14.408;2022-07-22T05:18:12;97974.06;;;20.52;90.87
38912;BME280;28444;48.056;14.408;2022-07-22T05:20:39;97973.44;;;20.53;91.19
38912;BME280;28444;48.056;14.408;2022-07-22T05:23:06;97967.06;;;20.51;91.60
38912;BME280;28444;48.056;14.408;2022-07-22T05:25:32;97963.16;;;20.42;91.22
38912;BME280;28444;48.056;14.408;2022-07-22T05:27:59;97981.06;;;20.53;91.38
38912;BME280;28444;48.056;14.408;2022-07-22T05:30:26;97980.00;;;20.60;90.79
38912;BME280;28444;48.056;14.408;2022-07-22T05:32:53;97978.84;;;20.65;90.83
38912;BME280;28444;48.056;14.408;2022-07-22T05:35:20;97977.41;;;20.64;89.52
38912;BME280;28444;48.056;14.408;2022-07-22T05:37:47;97974.81;;;20.68;89.51
38912;BME280;28444;48.056;14.408;2022-07-22T05:40:14;97982.53;;;20.70;89.42
38912;BME280;28444;48.056;14.408;2022-07-22T05:42:41;97975.72;;;20.73;88.97
38912;BME280;28444;48.056;14.408;2022-07-22T05:45:08;97975.38;;;20.80;89.27
38912;BME280;28444;48.056;14.408;2022-07-22T05:47:35;97980.69;;;20.90;89.02
38912;BME280;28444;48.056;14.408;2022-07-22T05:50:02;97976.84;;;20.81;88.77
38912;BME280;28444;48.056;14.408;2022-07-22T05:52:29;97975.16;;;20.90;88.11
38912;BME280;28444;48.056;14.408;2022-07-22T05:54:59;97967.03;;;21.10;86.99
38912;BME280;28444;48.056;14.408;2022-07-22T05:57:26;97969.59;;;21.35;86.88
38912;BME280;28444;48.056;14.408;2022-07-22T05:59:52;97967.34;;;21.48;84.97
38912;BME280;28444;48.056;14.408;2022-07-22T06:02:19;97967.03;;;21.73;84.63
38912;BME280;28444;48.056;14.408;2022-07-22T06:04:47;97978.59;;;21.68;83.92
38912;BME280;28444;48.056;14.408;2022-07-22T06:07:14;97970.56;;;21.58;84.98
38912;BME280;28444;48.056;14.408;2022-07-22T06:09:41;97970.47;;;21.56;85.55
38912;BME280;28444;48.056;14.408;2022-07-22T06:12:08;97964.91;;;21.56;85.50
38912;BME280;28444;48.056;14.408;2022-07-22T06:14:34;97965.44;;;21.52;85.10
38912;BME280;28444;48.056;14.408;2022-07-22T06:17:03;97970.38;;;21.54;84.58
38912;BME280;28444;48.056;14.408;2022-07-22T06:19:30;97975.94;;;21.54;85.06
38912;BME280;28444;48.056;14.408;2022-07-22T06:21:57;97973.16;;;21.54;85.27
38912;BME280;28444;48.056;14.408;2022-07-22T06:24:23;97969.66;;;21.69;85.19
38912;BME280;28444;48.056;14.408;2022-07-22T06:26:52;97971.34;;;21.76;84.51
38912;BME280;28444;48.056;14.408;2022-07-22T06:29:18;97965.84;;;21.94;82.92
38912;BME280;28444;48.056;14.408;2022-07-22T06:31:45;97974.25;;;21.96;83.00
38912;BME280;28444;48.056;14.408;2022-07-22T06:34:12;97965.47;;;22.02;82.77
38912;BME280;28444;48.056;14.408;2022-07-22T06:36:39;97967.22;;;22.11;82.58
38912;BME280;28444;48.056;14.408;2022-07-22T06:39:05;97963.00;;;22.10;81.33
38912;BME280;28444;48.056;14.408;2022-07-22T06:41:32;97955.91;;;22.07;81.91
38912;BME280;28444;48.056;14.408;2022-07-22T06:43:59;97958.38;;;21.99;80.91
38912;BME280;28444;48.056;14.408;2022-07-22T06:46:26;97960.06;;;22.06;79.79
38912;BME280;28444;48.056;14.408;2022-07-22T06:48:53;97957.72;;;22.00;80.54
38912;BME280;28444;48.056;14.408;2022-07-22T06:51:20;97957.19;;;22.04;81.33
38912;BME280;28444;48.056;14.408;2022-07-22T06:53:52;97958.53;;;22.19;81.15
38912;BME280;28444;48.056;14.408;2022-07-22T06:56:19;97957.09;;;22.35;82.38
38912;BME280;28444;48.056;14.408;2022-07-22T06:58:46;97951.13;;;22.43;82.19
38912;BME280;28444;48.056;14.408;2022-07-22T07:01:12;97954.03;;;22.63;80.36
38912;BME280;28444;48.056;14.408;2022-07-22T07:03:39;97956.16;;;22.82;80.24
38912;BME280;28444;48.056;14.408;2022-07-22T07:06:08;97938.44;;;23.12;79.20
38912;BME280;28444;48.056;14.408;2022-07-22T07:08:38;97940.69;;;23.35;77.42
38912;BME280;28444;48.056;14.408;2022-07-22T07:11:06;97935.25;;;23.39;77.39
38912;BME280;28444;48.056;14.408;2022-07-22T07:13:33;97931.88;;;23.23;77.08
38912;BME280;28444;48.056;14.408;2022-07-22T07:16:00;97934.47;;;23.17;78.41
38912;BME280;28444;48.056;14.408;2022-07-22T07:18:27;97933.88;;;23.20;78.10
38912;BME280;28444;48.056;14.408;2022-07-22T07:20:53;97934.78;;;23.07;78.95
38912;BME280;28444;48.056;14.408;2022-07-22T07:23:20;97929.13;;;23.05;78.25
38912;BME280;28444;48.056;14.408;2022-07-22T07:25:47;97931.50;;;23.13;77.59
38912;BME280;28444;48.056;14.408;2022-07-22T07:28:14;97922.28;;;23.08;77.99
38912;BME280;28444;48.056;14.408;2022-07-22T07:30:41;97929.63;;;22.99;78.15
38912;BME280;28444;48.056;14.408;2022-07-22T07:33:08;97919.25;;;23.02;78.40
38912;BME280;28444;48.056;14.408;2022-07-22T07:35:35;97922.13;;;23.24;77.84
38912;BME280;28444;48.056;14.408;2022-07-22T07:38:02;97920.22;;;23.28;76.45
38912;BME280;28444;48.056;14.408;2022-07-22T07:40:29;97912.56;;;23.29;76.84
38912;BME280;28444;48.056;14.408;2022-07-22T07:42:56;97909.13;;;23.30;76.34
38912;BME280;28444;48.056;14.408;2022-07-22T07:45:29;97910.28;;;23.43;77.33
38912;BME280;28444;48.056;14.408;2022-07-22T07:47:56;97910.56;;;23.51;77.12
38912;BME280;28444;48.056;14.408;2022-07-22T07:50:23;97905.66;;;23.50;76.72
38912;BME280;28444;48.056;14.408;2022-07-22T07:52:50;97899.09;;;23.63;76.95
38912;BME280;28444;48.056;14.408;2022-07-22T07:55:19;97898.41;;;23.63;76.29
38912;BME280;28444;48.056;14.408;2022-07-22T07:57:46;97903.84;;;23.78;77.30
38912;BME280;28444;48.056;14.408;2022-07-22T08:00:19;97899.91;;;23.86;76.03
38912;BME280;28444;48.056;14.408;2022-07-22T08:02:47;97892.72;;;24.00;76.33
38912;BME280;28444;48.056;14.408;2022-07-22T08:05:14;97892.88;;;24.07;77.24
38912;BME280;28444;48.056;14.408;2022-07-22T08:07:42;97893.75;;;24.11;74.86
38912;BME280;28444;48.056;14.408;2022-07-22T08:10:09;97896.53;;;24.11;76.84
38912;BME280;28444;48.056;14.408;2022-07-22T08:12:56;97892.72;;;24.22;76.77
38912;BME280;28444;48.056;14.408;2022-07-22T08:15:28;97890.09;;;24.29;76.74
38912;BME280;28444;48.056;14.408;2022-07-22T08:17:55;97881.97;;;24.37;75.97
38912;BME280;28444;48.056;14.408;2022-07-22T08:20:23;97885.56;;;24.39;73.89
38912;BME280;28444;48.056;14.408;2022-07-22T08:22:52;97879.69;;;24.53;73.38
38912;BME280;28444;48.056;14.408;2022-07-22T08:25:20;97883.81;;;24.74;73.49
38912;BME280;28444;48.056;14.408;2022-07-22T08:27:47;97890.47;;;24.87;72.23
38912;BME280;28444;48.056;14.408;2022-07-22T08:30:14;97885.06;;;24.93;70.81
38912;BME280;28444;48.056;14.408;2022-07-22T08:32:41;97879.53;;;24.95;70.30
38912;BME280;28444;48.056;14.408;2022-07-22T08:35:08;97889.84;;;24.88;70.18
38912;BME280;28444;48.056;14.408;2022-07-22T08:37:35;97883.16;;;24.76;69.95
38912;BME280;28444;48.056;14.408;2022-07-22T08:40:03;97886.84;;;24.82;71.54
38912;BME280;28444;48.056;14.408;2022-07-22T08:42:31;97877.97;;;24.90;70.10
38912;BME280;28444;48.056;14.408;2022-07-22T08:44:59;97880.97;;;24.96;70.56
38912;BME280;28444;48.056;14.408;2022-07-22T08:47:31;97879.81;;;25.05;70.54
38912;BME280;28444;48.056;14.408;2022-07-22T08:50:09;97878.78;;;25.16;69.69
38912;BME280;28444;48.056;14.408;2022-07-22T08:52:36;97877.88;;;25.36;70.08
38912;BME280;28444;48.056;14.408;2022-07-22T08:55:04;97873.09;;;25.40;70.99
38912;BME280;28444;48.056;14.408;2022-07-22T08:57:32;97881.78;;;25.51;70.33
38912;BME280;28444;48.056;14.408;2022-07-22T09:00:00;97871.28;;;25.51;68.63
38912;BME280;28444;48.056;14.408;2022-07-22T09:02:27;97878.53;;;25.60;68.72
38912;BME280;28444;48.056;14.408;2022-07-22T09:05:05;97872.34;;;25.64;67.54
38912;BME280;28444;48.056;14.408;2022-07-22T09:07:57;97870.50;;;25.75;69.48
38912;BME280;28444;48.056;14.408;2022-07-22T09:10:34;97869.16;;;25.78;68.07
38912;BME280;28444;48.056;14.408;2022-07-22T09:13:04;97871.59;;;25.89;66.91
38912;BME280;28444;48.056;14.408;2022-07-22T09:15:37;97863.31;;;25.96;68.93
38912;BME280;28444;48.056;14.408;2022-07-22T09:18:05;97872.78;;;26.10;69.55
38912;BME280;28444;48.056;14.408;2022-07-22T09:20:37;97863.66;;;26.10;62.90
38912;BME280;28444;48.056;14.408;2022-07-22T09:23:12;97867.16;;;26.08;65.62
38912;BME280;28444;48.056;14.408;2022-07-22T09:25:39;97855.41;;;26.16;67.48
38912;BME280;28444;48.056;14.408;2022-07-22T09:30:52;97859.34;;;26.35;67.35
38912;BME280;28444;48.056;14.408;2022-07-22T09:33:22;97852.59;;;26.46;61.57
38912;BME280;28444;48.056;14.408;2022-07-22T09:35:50;97852.69;;;26.50;62.89
38912;BME280;28444;48.056;14.408;2022-07-22T09:38:20;97850.41;;;26.42;62.93
38912;BME280;28444;48.056;14.408;2022-07-22T09:40:53;97847.72;;;26.47;63.65
38912;BME280;28444;48.056;14.408;2022-07-22T09:43:21;97839.72;;;26.35;62.71
38912;BME280;28444;48.056;14.408;2022-07-22T09:45:53;97846.00;;;26.33;65.74
38912;BME280;28444;48.056;14.408;2022-07-22T09:48:26;97834.84;;;26.35;63.76
38912;BME280;28444;48.056;14.408;2022-07-22T09:50:55;97834.88;;;26.37;65.37
38912;BME280;28444;48.056;14.408;2022-07-22T09:53:25;97833.63;;;26.45;65.29
38912;BME280;28444;48.056;14.408;2022-07-22T09:55:55;97830.41;;;26.56;65.57
38912;BME280;28444;48.056;14.408;2022-07-22T09:58:23;97829.94;;;26.66;63.29
38912;BME280;28444;48.056;14.408;2022-07-22T10:00:51;97818.78;;;26.70;62.27
38912;BME280;28444;48.056;14.408;2022-07-22T10:03:25;97823.38;;;26.89;63.36
38912;BME280;28444;48.056;14.408;2022-07-22T10:05:53;97827.81;;;27.01;65.08
38912;BME280;28444;48.056;14.408;2022-07-22T10:08:20;97811.03;;;27.05;64.62
38912;BME280;28444;48.056;14.408;2022-07-22T10:10:47;97813.34;;;27.13;61.53
38912;BME280;28444;48.056;14.408;2022-07-22T10:13:17;97811.94;;;27.14;62.23
38912;BME280;28444;48.056;14.408;2022-07-22T10:15:46;97807.16;;;27.20;62.80
38912;BME280;28444;48.056;14.408;2022-07-22T10:18:17;97807.19;;;27.22;62.77
38912;BME280;28444;48.056;14.408;2022-07-22T10:20:43;97810.81;;;27.29;60.67
38912;BME280;28444;48.056;14.408;2022-07-22T10:23:12;97806.25;;;27.09;58.81
38912;BME280;28444;48.056;14.408;2022-07-22T10:26:08;97802.22;;;27.19;60.24
38912;BME280;28444;48.056;14.408;2022-07-22T10:28:36;97807.97;;;27.27;58.62
38912;BME280;28444;48.056;14.408;2022-07-22T10:31:21;97800.31;;;27.29;58.20
38912;BME280;28444;48.056;14.408;2022-07-22T10:33:55;97800.34;;;27.31;58.45
38912;BME280;28444;48.056;14.408;2022-07-22T10:36:37;97801.06;;;27.34;60.71
38912;BME280;28444;48.056;14.408;2022-07-22T10:39:09;97794.75;;;27.33;59.07
38912;BME280;28444;48.056;14.408;2022-07-22T10:41:40;97795.50;;;27.36;58.74
38912;BME280;28444;48.056;14.408;2022-07-22T10:44:07;97790.81;;;27.49;59.32
38912;BME280;28444;48.056;14.408;2022-07-22T10:46:51;97788.88;;;27.57;59.57
38912;BME280;28444;48.056;14.408;2022-07-22T10:49:23;97777.00;;;27.63;60.42
38912;BME280;28444;48.056;14.408;2022-07-22T10:52:10;97780.06;;;27.77;57.51
38912;BME280;28444;48.056;14.408;2022-07-22T10:55:21;97777.25;;;27.77;55.28
38912;BME280;28444;48.056;14.408;2022-07-22T10:57:48;97770.41;;;27.89;54.73
38912;BME280;28444;48.056;14.408;2022-07-22T11:00:15;97775.31;;;27.86;57.71
38912;BME280;28444;48.056;14.408;2022-07-22T11:02:42;97769.03;;;27.90;57.65
38912;BME280;28444;48.056;14.408;2022-07-22T11:05:10;97760.69;;;27.96;57.83
38912;BME280;28444;48.056;14.408;2022-07-22T11:07:44;97769.91;;;28.00;56.13
38912;BME280;28444;48.056;14.408;2022-07-22T11:10:16;97766.34;;;27.98;56.37
38912;BME280;28444;48.056;14.408;2022-07-22T11:12:45;97757.97;;;28.02;55.56
38912;BME280;28444;48.056;14.408;2022-07-22T11:15:12;97753.75;;;28.03;58.54
38912;BME280;28444;48.056;14.408;2022-07-22T11:17:39;97752.44;;;28.08;55.05
38912;BME280;28444;48.056;14.408;2022-07-22T11:20:10;97753.00;;;27.98;56.32
38912;BME280;28444;48.056;14.408;2022-07-22T11:22:37;97748.06;;;27.97;56.11
38912;BME280;28444;48.056;14.408;2022-07-22T11:25:09;97760.16;;;28.07;56.75
38912;BME280;28444;48.056;14.408;2022-07-22T11:27:36;97747.59;;;28.13;56.45
38912;BME280;28444;48.056;14.408;2022-07-22T11:30:04;97749.78;;;28.18;56.74
38912;BME280;28444;48.056;14.408;2022-07-22T11:32:33;97748.53;;;28.31;55.68
38912;BME280;28444;48.056;14.408;2022-07-22T11:35:00;97737.94;;;28.28;55.54
38912;BME280;28444;48.056;14.408;2022-07-22T11:37:28;97733.72;;;28.27;55.02
38912;BME280;28444;48.056;14.408;2022-07-22T11:40:04;97738.00;;;28.32;56.00
38912;BME280;28444;48.056;14.408;2022-07-22T11:42:32;97731.16;;;28.45;56.29
38912;BME280;28444;48.056;14.408;2022-07-22T11:44:58;97731.91;;;28.48;57.28
38912;BME280;28444;48.056;14.408;2022-07-22T11:47:25;97724.81;;;28.43;57.74
38912;BME280;28444;48.056;14.408;2022-07-22T11:49:52;97723.44;;;28.44;55.31
38912;BME280;28444;48.056;14.408;2022-07-22T11:52:19;97721.34;;;28.46;56.54
38912;BME280;28444;48.056;14.408;2022-07-22T11:54:46;97720.63;;;28.46;55.04
38912;BME280;28444;48.056;14.408;2022-07-22T11:57:14;97729.00;;;28.40;55.26
38912;BME280;28444;48.056;14.408;2022-07-22T11:59:41;97721.28;;;28.42;57.36
38912;BME280;28444;48.056;14.408;2022-07-22T12:02:09;97719.25;;;28.49;57.30
38912;BME280;28444;48.056;14.408;2022-07-22T12:04:38;97709.47;;;28.54;54.79
38912;BME280;28444;48.056;14.408;2022-07-22T12:07:06;97705.94;;;28.53;57.40
38912;BME280;28444;48.056;14.408;2022-07-22T12:09:35;97708.09;;;28.57;58.47
38912;BME280;28444;48.056;14.408;2022-07-22T12:12:03;97698.84;;;28.46;55.88
38912;BME280;28444;48.056;14.408;2022-07-22T12:14:33;97703.19;;;28.58;56.93
38912;BME280;28444;48.056;14.408;2022-07-22T12:17:07;97697.72;;;28.70;59.76
38912;BME280;28444;48.056;14.408;2022-07-22T12:19:39;97708.97;;;28.70;57.80
38912;BME280;28444;48.056;14.408;2022-07-22T12:22:09;97696.41;;;28.81;57.06
38912;BME280;28444;48.056;14.408;2022-07-22T12:24:56;97697.81;;;28.80;54.50
38912;BME280;28444;48.056;14.408;2022-07-22T12:27:23;97701.97;;;28.73;55.68
38912;BME280;28444;48.056;14.408;2022-07-22T12:29:50;97703.38;;;28.74;55.23
38912;BME280;28444;48.056;14.408;2022-07-22T12:32:27;97704.13;;;28.78;54.36
38912;BME280;28444;48.056;14.408;2022-07-22T12:37:29;97696.47;;;28.87;55.63
38912;BME280;28444;48.056;14.408;2022-07-22T12:40:09;97690.13;;;28.87;54.71
38912;BME280;28444;48.056;14.408;2022-07-22T12:42:43;97690.19;;;28.93;56.17
38912;BME280;28444;48.056;14.408;2022-07-22T12:45:15;97683.16;;;28.92;55.13
38912;BME280;28444;48.056;14.408;2022-07-22T12:48:06;97683.22;;;28.98;54.09
38912;BME280;28444;48.056;14.408;2022-07-22T12:50:41;97681.25;;;29.09;55.81
38912;BME280;28444;48.056;14.408;2022-07-22T12:53:14;97674.97;;;29.16;57.41
38912;BME280;28444;48.056;14.408;2022-07-22T12:55:49;97663.75;;;29.22;54.37
38912;BME280;28444;48.056;14.408;2022-07-22T12:58:18;97667.97;;;29.21;53.63
38912;BME280;28444;48.056;14.408;2022-07-22T13:00:51;97663.75;;;29.22;54.34
38912;BME280;28444;48.056;14.408;2022-07-22T13:03:19;97651.78;;;29.22;54.50